sensor_id;sensor_type;location;lat;lon;timestamp;P1;durP1;ratioP1;P2;durP2;ratioP2
13872;SDS011;7006;51.494;11.964;2023-05-27T00:01:39;17.73;;;8.63;;
13872;SDS011;7006;51.494;11.964;2023-05-27T00:04:07;18.90;;;7.57;;
13872;SDS011;7006;51.494;11.964;2023-05-27T00:06:35;15.20;;;6.33;;
13872;SDS011;7006;51.494;11.964;2023-05-27T00:09:03;9.90;;;6.10;;
13872;SDS011;7006;51.494;11.964;2023-05-27T00:11:34;10.50;;;6.23;;
13872;SDS011;7006;51.494;11.964;2023-05-27T00:14:02;11.50;;;6.10;;
13872;SDS011;7006;51.494;11.964;2023-05-27T00:16:30;13.10;;;6.20;;
13872;SDS011;7006;51.494;11.964;2023-05-27T00:19:00;13.20;;;7.43;;
13872;SDS011;7006;51.494;11.964;2023-05-27T00:21:29;11.57;;;6.47;;
13872;SDS011;7006;51.494;11.964;2023-05-27T00:23:57;11.93;;;6.20;;
13872;SDS011;7006;51.494;11.964;2023-05-27T00:26:25;13.50;;;6.50;;
13872;SDS011;7006;51.494;11.964;2023-05-27T00:28:56;14.37;;;6.60;;
13872;SDS011;7006;51.494;11.964;2023-05-27T00:31:24;12.90;;;7.07;;
13872;SDS011;7006;51.494;11.964;2023-05-27T00:33:52;16.23;;;7.10;;
13872;SDS011;7006;51.494;11.964;2023-05-27T00:36:20;14.87;;;6.60;;
13872;SDS011;7006;51.494;11.964;2023-05-27T00:38:48;12.00;;;6.00;;
13872;SDS011;7006;51.494;11.964;2023-05-27T00:41:16;13.43;;;6.30;;
13872;SDS011;7006;51.494;11.964;2023-05-27T00:43:45;13.27;;;6.97;;
13872;SDS011;7006;51.494;11.964;2023-05-27T00:46:16;12.43;;;6.20;;
13872;SDS011;7006;51.494;11.964;2023-05-27T00:48:44;12.63;;;6.70;;
13872;SDS011;7006;51.494;11.964;2023-05-27T00:51:12;16.43;;;7.00;;
13872;SDS011;7006;51.494;11.964;2023-05-27T00:53:41;15.57;;;7.40;;
13872;SDS011;7006;51.494;11.964;2023-05-27T00:56:09;10.00;;;6.30;;
13872;SDS011;7006;51.494;11.964;2023-05-27T00:58:40;19.13;;;6.93;;
13872;SDS011;7006;51.494;11.964;2023-05-27T01:01:08;14.57;;;6.57;;
13872;SDS011;7006;51.494;11.964;2023-05-27T01:03:39;14.83;;;7.50;;
13872;SDS011;7006;51.494;11.964;2023-05-27T01:06:09;11.70;;;6.53;;
13872;SDS011;7006;51.494;11.964;2023-05-27T01:08:41;18.20;;;7.57;;
13872;SDS011;7006;51.494;11.964;2023-05-27T01:11:13;11.13;;;6.63;;
13872;SDS011;7006;51.494;11.964;2023-05-27T01:13:44;11.73;;;7.10;;
13872;SDS011;7006;51.494;11.964;2023-05-27T01:16:13;11.40;;;6.83;;
13872;SDS011;7006;51.494;11.964;2023-05-27T01:18:46;15.60;;;7.17;;
13872;SDS011;7006;51.494;11.964;2023-05-27T01:21:17;14.90;;;6.40;;
13872;SDS011;7006;51.494;11.964;2023-05-27T01:23:49;14.03;;;6.20;;
13872;SDS011;7006;51.494;11.964;2023-05-27T01:26:18;15.83;;;6.87;;
13872;SDS011;7006;51.494;11.964;2023-05-27T01:28:46;16.70;;;7.67;;
13872;SDS011;7006;51.494;11.964;2023-05-27T01:31:16;15.80;;;7.20;;
13872;SDS011;7006;51.494;11.964;2023-05-27T01:33:47;13.60;;;6.70;;
13872;SDS011;7006;51.494;11.964;2023-05-27T01:36:18;16.60;;;7.40;;
13872;SDS011;7006;51.494;11.964;2023-05-27T01:38:50;19.30;;;8.70;;
13872;SDS011;7006;51.494;11.964;2023-05-27T01:41:19;14.90;;;7.40;;
13872;SDS011;7006;51.494;11.964;2023-05-27T01:43:47;15.83;;;7.10;;
13872;SDS011;7006;51.494;11.964;2023-05-27T01:46:15;16.70;;;7.53;;
13872;SDS011;7006;51.494;11.964;2023-05-27T01:48:44;13.70;;;7.00;;
13872;SDS011;7006;51.494;11.964;2023-05-27T01:51:12;15.07;;;6.50;;
13872;SDS011;7006;51.494;11.964;2023-05-27T01:53:40;13.63;;;6.77;;
13872;SDS011;7006;51.494;11.964;2023-05-27T01:56:11;13.37;;;7.00;;
13872;SDS011;7006;51.494;11.964;2023-05-27T01:58:39;14.40;;;7.47;;
13872;SDS011;7006;51.494;11.964;2023-05-27T02:01:07;12.93;;;7.17;;
13872;SDS011;7006;51.494;11.964;2023-05-27T02:03:35;14.03;;;7.30;;
13872;SDS011;7006;51.494;11.964;2023-05-27T02:06:03;19.90;;;8.20;;
13872;SDS011;7006;51.494;11.964;2023-05-27T02:08:31;15.00;;;6.93;;
13872;SDS011;7006;51.494;11.964;2023-05-27T02:10:59;12.67;;;7.10;;
13872;SDS011;7006;51.494;11.964;2023-05-27T02:13:30;13.80;;;7.37;;
13872;SDS011;7006;51.494;11.964;2023-05-27T02:15:58;17.30;;;6.87;;
13872;SDS011;7006;51.494;11.964;2023-05-27T02:18:26;13.20;;;7.53;;
13872;SDS011;7006;51.494;11.964;2023-05-27T02:20:56;12.90;;;7.13;;
13872;SDS011;7006;51.494;11.964;2023-05-27T02:23:30;11.77;;;6.47;;
13872;SDS011;7006;51.494;11.964;2023-05-27T02:25:58;12.03;;;6.40;;
13872;SDS011;7006;51.494;11.964;2023-05-27T02:28:26;14.73;;;7.03;;
13872;SDS011;7006;51.494;11.964;2023-05-27T02:30:57;10.10;;;6.33;;
13872;SDS011;7006;51.494;11.964;2023-05-27T02:33:25;18.87;;;6.67;;
13872;SDS011;7006;51.494;11.964;2023-05-27T02:35:54;14.50;;;6.40;;
13872;SDS011;7006;51.494;11.964;2023-05-27T02:38:22;15.83;;;6.67;;
13872;SDS011;7006;51.494;11.964;2023-05-27T02:40:50;17.10;;;9.80;;
13872;SDS011;7006;51.494;11.964;2023-05-27T02:43:18;13.47;;;7.70;;
13872;SDS011;7006;51.494;11.964;2023-05-27T02:45:46;12.03;;;6.73;;
13872;SDS011;7006;51.494;11.964;2023-05-27T02:48:17;14.70;;;7.30;;
13872;SDS011;7006;51.494;11.964;2023-05-27T02:50:45;13.03;;;6.70;;
13872;SDS011;7006;51.494;11.964;2023-05-27T02:53:13;15.03;;;6.60;;
13872;SDS011;7006;51.494;11.964;2023-05-27T02:55:41;15.60;;;7.30;;
13872;SDS011;7006;51.494;11.964;2023-05-27T02:58:09;11.40;;;6.20;;
13872;SDS011;7006;51.494;11.964;2023-05-27T03:00:37;19.43;;;6.50;;
13872;SDS011;7006;51.494;11.964;2023-05-27T03:03:05;13.27;;;7.60;;
13872;SDS011;7006;51.494;11.964;2023-05-27T03:05:36;13.80;;;7.33;;
13872;SDS011;7006;51.494;11.964;2023-05-27T03:08:04;14.40;;;7.23;;
13872;SDS011;7006;51.494;11.964;2023-05-27T03:10:33;15.53;;;7.40;;
13872;SDS011;7006;51.494;11.964;2023-05-27T03:13:01;12.43;;;6.33;;
13872;SDS011;7006;51.494;11.964;2023-05-27T03:15:29;10.60;;;6.60;;
13872;SDS011;7006;51.494;11.964;2023-05-27T03:17:57;13.37;;;6.20;;
13872;SDS011;7006;51.494;11.964;2023-05-27T03:20:27;10.13;;;6.10;;
13872;SDS011;7006;51.494;11.964;2023-05-27T03:22:57;14.63;;;6.90;;
13872;SDS011;7006;51.494;11.964;2023-05-27T03:25:25;11.50;;;6.63;;
13872;SDS011;7006;51.494;11.964;2023-05-27T03:27:54;12.67;;;6.13;;
13872;SDS011;7006;51.494;11.964;2023-05-27T03:30:22;14.10;;;6.97;;
13872;SDS011;7006;51.494;11.964;2023-05-27T03:32:50;12.47;;;6.80;;
13872;SDS011;7006;51.494;11.964;2023-05-27T03:35:18;14.73;;;6.77;;
13872;SDS011;7006;51.494;11.964;2023-05-27T03:37:46;14.17;;;6.83;;
13872;SDS011;7006;51.494;11.964;2023-05-27T03:40:17;11.77;;;6.43;;
13872;SDS011;7006;51.494;11.964;2023-05-27T03:42:45;11.50;;;6.40;;
13872;SDS011;7006;51.494;11.964;2023-05-27T03:45:13;16.33;;;7.70;;
13872;SDS011;7006;51.494;11.964;2023-05-27T03:47:41;14.63;;;6.67;;
13872;SDS011;7006;51.494;11.964;2023-05-27T03:50:10;10.33;;;5.83;;
13872;SDS011;7006;51.494;11.964;2023-05-27T03:52:38;13.43;;;6.10;;
13872;SDS011;7006;51.494;11.964;2023-05-27T03:55:06;14.83;;;6.37;;
13872;SDS011;7006;51.494;11.964;2023-05-27T03:57:38;9.90;;;5.40;;
13872;SDS011;7006;51.494;11.964;2023-05-27T04:00:06;12.57;;;6.43;;
13872;SDS011;7006;51.494;11.964;2023-05-27T04:02:36;12.47;;;6.27;;
13872;SDS011;7006;51.494;11.964;2023-05-27T04:05:05;10.10;;;6.20;;
13872;SDS011;7006;51.494;11.964;2023-05-27T04:07:33;17.87;;;7.80;;
13872;SDS011;7006;51.494;11.964;2023-05-27T04:10:01;11.23;;;6.10;;
13872;SDS011;7006;51.494;11.964;2023-05-27T04:12:29;13.87;;;7.03;;
13872;SDS011;7006;51.494;11.964;2023-05-27T04:15:00;12.90;;;6.20;;
13872;SDS011;7006;51.494;11.964;2023-05-27T04:17:28;11.03;;;6.30;;
13872;SDS011;7006;51.494;11.964;2023-05-27T04:19:56;12.87;;;6.77;;
13872;SDS011;7006;51.494;11.964;2023-05-27T04:22:24;16.40;;;6.70;;
13872;SDS011;7006;51.494;11.964;2023-05-27T04:24:52;14.10;;;8.23;;
13872;SDS011;7006;51.494;11.964;2023-05-27T04:27:20;11.90;;;6.47;;
13872;SDS011;7006;51.494;11.964;2023-05-27T04:29:50;12.73;;;6.53;;
13872;SDS011;7006;51.494;11.964;2023-05-27T04:32:21;15.70;;;6.70;;
13872;SDS011;7006;51.494;11.964;2023-05-27T04:34:49;14.67;;;6.43;;
13872;SDS011;7006;51.494;11.964;2023-05-27T04:37:17;15.17;;;7.10;;
13872;SDS011;7006;51.494;11.964;2023-05-27T04:39:45;13.67;;;6.43;;
13872;SDS011;7006;51.494;11.964;2023-05-27T04:42:13;22.63;;;10.30;;
13872;SDS011;7006;51.494;11.964;2023-05-27T04:44:42;14.70;;;7.00;;
13872;SDS011;7006;51.494;11.964;2023-05-27T04:47:10;12.97;;;7.67;;
13872;SDS011;7006;51.494;11.964;2023-05-27T04:49:41;14.10;;;8.10;;
13872;SDS011;7006;51.494;11.964;2023-05-27T04:52:09;15.50;;;6.77;;
13872;SDS011;7006;51.494;11.964;2023-05-27T04:54:37;14.13;;;8.10;;
13872;SDS011;7006;51.494;11.964;2023-05-27T04:57:05;17.27;;;8.40;;
13872;SDS011;7006;51.494;11.964;2023-05-27T04:59:33;11.00;;;6.40;;
13872;SDS011;7006;51.494;11.964;2023-05-27T05:02:23;16.87;;;6.13;;
13872;SDS011;7006;51.494;11.964;2023-05-27T05:05:01;11.40;;;7.57;;
13872;SDS011;7006;51.494;11.964;2023-05-27T05:07:29;12.67;;;6.30;;
13872;SDS011;7006;51.494;11.964;2023-05-27T05:09:58;12.90;;;6.90;;
13872;SDS011;7006;51.494;11.964;2023-05-27T05:12:26;11.60;;;6.40;;
13872;SDS011;7006;51.494;11.964;2023-05-27T05:14:55;17.30;;;7.93;;
13872;SDS011;7006;51.494;11.964;2023-05-27T05:17:23;13.10;;;6.70;;
13872;SDS011;7006;51.494;11.964;2023-05-27T05:19:51;11.10;;;7.27;;
13872;SDS011;7006;51.494;11.964;2023-05-27T05:22:22;16.10;;;7.60;;
13872;SDS011;7006;51.494;11.964;2023-05-27T05:24:52;13.73;;;6.97;;
13872;SDS011;7006;51.494;11.964;2023-05-27T05:27:20;14.20;;;7.03;;
13872;SDS011;7006;51.494;11.964;2023-05-27T05:29:48;18.20;;;7.37;;
13872;SDS011;7006;51.494;11.964;2023-05-27T05:32:16;15.43;;;7.77;;
13872;SDS011;7006;51.494;11.964;2023-05-27T05:34:44;17.33;;;8.73;;
13872;SDS011;7006;51.494;11.964;2023-05-27T05:37:12;14.43;;;7.53;;
13872;SDS011;7006;51.494;11.964;2023-05-27T05:39:43;14.30;;;7.07;;
13872;SDS011;7006;51.494;11.964;2023-05-27T05:42:11;14.67;;;7.90;;
13872;SDS011;7006;51.494;11.964;2023-05-27T05:44:39;15.10;;;8.00;;
13872;SDS011;7006;51.494;11.964;2023-05-27T05:47:07;13.97;;;7.30;;
13872;SDS011;7006;51.494;11.964;2023-05-27T05:49:35;14.30;;;6.70;;
13872;SDS011;7006;51.494;11.964;2023-05-27T05:52:03;15.90;;;6.47;;
13872;SDS011;7006;51.494;11.964;2023-05-27T05:54:31;12.87;;;6.77;;
13872;SDS011;7006;51.494;11.964;2023-05-27T05:57:02;12.07;;;6.80;;
13872;SDS011;7006;51.494;11.964;2023-05-27T05:59:30;12.90;;;6.90;;
13872;SDS011;7006;51.494;11.964;2023-05-27T06:01:58;18.43;;;6.70;;
13872;SDS011;7006;51.494;11.964;2023-05-27T06:04:26;11.67;;;6.80;;
13872;SDS011;7006;51.494;11.964;2023-05-27T06:06:54;12.13;;;6.30;;
13872;SDS011;7006;51.494;11.964;2023-05-27T06:09:23;13.23;;;6.90;;
13872;SDS011;7006;51.494;11.964;2023-05-27T06:11:51;18.30;;;6.77;;
13872;SDS011;7006;51.494;11.964;2023-05-27T06:14:22;11.63;;;6.57;;
13872;SDS011;7006;51.494;11.964;2023-05-27T06:16:50;13.70;;;6.20;;
13872;SDS011;7006;51.494;11.964;2023-05-27T06:19:18;12.33;;;6.40;;
13872;SDS011;7006;51.494;11.964;2023-05-27T06:21:46;19.43;;;6.90;;
13872;SDS011;7006;51.494;11.964;2023-05-27T06:24:14;12.13;;;6.70;;
13872;SDS011;7006;51.494;11.964;2023-05-27T06:26:44;14.37;;;6.80;;
13872;SDS011;7006;51.494;11.964;2023-05-27T06:29:14;11.73;;;5.80;;
13872;SDS011;7006;51.494;11.964;2023-05-27T06:31:45;13.23;;;6.93;;
13872;SDS011;7006;51.494;11.964;2023-05-27T06:34:14;14.03;;;6.67;;
13872;SDS011;7006;51.494;11.964;2023-05-27T06:36:43;12.73;;;6.53;;
13872;SDS011;7006;51.494;11.964;2023-05-27T06:39:13;11.00;;;6.50;;
13872;SDS011;7006;51.494;11.964;2023-05-27T06:41:41;19.37;;;7.67;;
13872;SDS011;7006;51.494;11.964;2023-05-27T06:44:09;11.67;;;6.73;;
13872;SDS011;7006;51.494;11.964;2023-05-27T06:46:38;13.17;;;6.97;;
13872;SDS011;7006;51.494;11.964;2023-05-27T06:49:09;19.47;;;7.10;;
13872;SDS011;7006;51.494;11.964;2023-05-27T06:51:37;12.40;;;6.10;;
13872;SDS011;7006;51.494;11.964;2023-05-27T06:54:05;14.47;;;7.00;;
13872;SDS011;7006;51.494;11.964;2023-05-27T06:56:33;13.00;;;7.20;;
13872;SDS011;7006;51.494;11.964;2023-05-27T06:59:01;16.87;;;8.37;;
13872;SDS011;7006;51.494;11.964;2023-05-27T07:01:29;11.27;;;6.83;;
13872;SDS011;7006;51.494;11.964;2023-05-27T07:03:58;14.00;;;6.70;;
13872;SDS011;7006;51.494;11.964;2023-05-27T07:06:29;14.20;;;6.27;;
13872;SDS011;7006;51.494;11.964;2023-05-27T07:08:57;11.63;;;6.30;;
13872;SDS011;7006;51.494;11.964;2023-05-27T07:11:25;13.70;;;6.47;;
13872;SDS011;7006;51.494;11.964;2023-05-27T07:13:54;13.17;;;6.70;;
13872;SDS011;7006;51.494;11.964;2023-05-27T07:16:22;13.70;;;5.80;;
13872;SDS011;7006;51.494;11.964;2023-05-27T07:18:50;12.33;;;6.30;;
13872;SDS011;7006;51.494;11.964;2023-05-27T07:21:18;13.10;;;6.27;;
13872;SDS011;7006;51.494;11.964;2023-05-27T07:23:48;16.17;;;5.90;;
13872;SDS011;7006;51.494;11.964;2023-05-27T07:26:16;14.50;;;6.17;;
13872;SDS011;7006;51.494;11.964;2023-05-27T07:28:45;8.30;;;4.13;;
13872;SDS011;7006;51.494;11.964;2023-05-27T07:31:13;10.60;;;4.53;;
13872;SDS011;7006;51.494;11.964;2023-05-27T07:33:41;11.77;;;5.37;;
13872;SDS011;7006;51.494;11.964;2023-05-27T07:36:09;11.17;;;4.87;;
13872;SDS011;7006;51.494;11.964;2023-05-27T07:38:37;13.67;;;5.30;;
13872;SDS011;7006;51.494;11.964;2023-05-27T07:41:08;8.70;;;4.00;;
13872;SDS011;7006;51.494;11.964;2023-05-27T07:43:36;9.47;;;4.57;;
13872;SDS011;7006;51.494;11.964;2023-05-27T07:46:04;14.70;;;5.40;;
13872;SDS011;7006;51.494;11.964;2023-05-27T07:48:32;15.20;;;5.87;;
13872;SDS011;7006;51.494;11.964;2023-05-27T07:51:00;10.70;;;5.13;;
13872;SDS011;7006;51.494;11.964;2023-05-27T07:53:28;16.67;;;5.40;;
13872;SDS011;7006;51.494;11.964;2023-05-27T07:55:57;12.40;;;6.07;;
13872;SDS011;7006;51.494;11.964;2023-05-27T07:58:27;13.70;;;4.87;;
13872;SDS011;7006;51.494;11.964;2023-05-27T08:00:56;11.93;;;5.10;;
13872;SDS011;7006;51.494;11.964;2023-05-27T08:03:24;12.50;;;4.77;;
13872;SDS011;7006;51.494;11.964;2023-05-27T08:05:52;10.17;;;4.37;;
13872;SDS011;7006;51.494;11.964;2023-05-27T08:08:20;14.20;;;5.27;;
13872;SDS011;7006;51.494;11.964;2023-05-27T08:10:48;12.50;;;4.87;;
13872;SDS011;7006;51.494;11.964;2023-05-27T08:13:16;10.63;;;4.70;;
13872;SDS011;7006;51.494;11.964;2023-05-27T08:15:47;14.30;;;5.10;;
13872;SDS011;7006;51.494;11.964;2023-05-27T08:18:15;9.90;;;4.27;;
13872;SDS011;7006;51.494;11.964;2023-05-27T08:20:43;9.60;;;4.43;;
13872;SDS011;7006;51.494;11.964;2023-05-27T08:23:11;8.63;;;4.20;;
13872;SDS011;7006;51.494;11.964;2023-05-27T08:25:39;11.53;;;5.30;;
13872;SDS011;7006;51.494;11.964;2023-05-27T08:28:07;13.70;;;5.40;;
13872;SDS011;7006;51.494;11.964;2023-05-27T08:30:36;11.00;;;5.10;;
13872;SDS011;7006;51.494;11.964;2023-05-27T08:33:06;11.03;;;5.30;;
13872;SDS011;7006;51.494;11.964;2023-05-27T08:35:35;10.80;;;4.50;;
13872;SDS011;7006;51.494;11.964;2023-05-27T08:38:03;13.23;;;4.63;;
13872;SDS011;7006;51.494;11.964;2023-05-27T08:40:31;13.13;;;5.47;;
13872;SDS011;7006;51.494;11.964;2023-05-27T08:42:59;13.60;;;5.47;;
13872;SDS011;7006;51.494;11.964;2023-05-27T08:45:27;9.97;;;4.90;;
13872;SDS011;7006;51.494;11.964;2023-05-27T08:47:56;7.87;;;3.90;;
13872;SDS011;7006;51.494;11.964;2023-05-27T08:50:27;10.67;;;4.53;;
13872;SDS011;7006;51.494;11.964;2023-05-27T08:52:55;10.50;;;4.43;;
13872;SDS011;7006;51.494;11.964;2023-05-27T08:55:23;10.00;;;4.80;;
13872;SDS011;7006;51.494;11.964;2023-05-27T08:57:54;8.70;;;4.23;;
13872;SDS011;7006;51.494;11.964;2023-05-27T09:00:22;8.50;;;4.50;;
13872;SDS011;7006;51.494;11.964;2023-05-27T09:02:51;13.20;;;5.23;;
13872;SDS011;7006;51.494;11.964;2023-05-27T09:05:21;10.10;;;5.47;;
13872;SDS011;7006;51.494;11.964;2023-05-27T09:07:52;18.13;;;5.00;;
13872;SDS011;7006;51.494;11.964;2023-05-27T09:10:20;13.93;;;4.93;;
13872;SDS011;7006;51.494;11.964;2023-05-27T09:12:49;14.30;;;5.50;;
13872;SDS011;7006;51.494;11.964;2023-05-27T09:15:18;10.27;;;5.20;;
13872;SDS011;7006;51.494;11.964;2023-05-27T09:17:46;10.93;;;5.23;;
13872;SDS011;7006;51.494;11.964;2023-05-27T09:20:14;12.60;;;5.37;;
13872;SDS011;7006;51.494;11.964;2023-05-27T09:22:42;11.63;;;4.60;;
13872;SDS011;7006;51.494;11.964;2023-05-27T09:25:13;8.67;;;4.70;;
13872;SDS011;7006;51.494;11.964;2023-05-27T09:27:42;8.30;;;4.80;;
13872;SDS011;7006;51.494;11.964;2023-05-27T09:30:12;11.13;;;4.70;;
13872;SDS011;7006;51.494;11.964;2023-05-27T09:32:41;8.73;;;4.73;;
13872;SDS011;7006;51.494;11.964;2023-05-27T09:35:10;11.07;;;4.93;;
13872;SDS011;7006;51.494;11.964;2023-05-27T09:37:38;9.10;;;4.67;;
13872;SDS011;7006;51.494;11.964;2023-05-27T09:40:09;11.13;;;5.27;;
13872;SDS011;7006;51.494;11.964;2023-05-27T09:42:44;10.27;;;5.27;;
13872;SDS011;7006;51.494;11.964;2023-05-27T09:45:13;7.90;;;4.33;;
13872;SDS011;7006;51.494;11.964;2023-05-27T09:47:41;8.50;;;4.30;;
13872;SDS011;7006;51.494;11.964;2023-05-27T09:50:10;10.10;;;4.57;;
13872;SDS011;7006;51.494;11.964;2023-05-27T09:52:40;9.33;;;4.57;;
13872;SDS011;7006;51.494;11.964;2023-05-27T09:55:09;9.57;;;4.68;;
13872;SDS011;7006;51.494;11.964;2023-05-27T09:57:38;8.00;;;4.57;;
13872;SDS011;7006;51.494;11.964;2023-05-27T10:00:10;8.90;;;4.50;;
13872;SDS011;7006;51.494;11.964;2023-05-27T10:02:40;7.57;;;4.53;;
13872;SDS011;7006;51.494;11.964;2023-05-27T10:05:10;6.57;;;4.23;;
13872;SDS011;7006;51.494;11.964;2023-05-27T10:07:39;6.23;;;4.23;;
13872;SDS011;7006;51.494;11.964;2023-05-27T10:10:08;8.20;;;4.80;;
13872;SDS011;7006;51.494;11.964;2023-05-27T10:12:37;11.30;;;5.28;;
13872;SDS011;7006;51.494;11.964;2023-05-27T10:15:06;8.90;;;5.05;;
13872;SDS011;7006;51.494;11.964;2023-05-27T10:17:46;9.23;;;4.80;;
13872;SDS011;7006;51.494;11.964;2023-05-27T10:20:23;10.27;;;4.90;;
13872;SDS011;7006;51.494;11.964;2023-05-27T10:22:51;8.17;;;4.77;;
13872;SDS011;7006;51.494;11.964;2023-05-27T10:25:19;9.77;;;5.13;;
13872;SDS011;7006;51.494;11.964;2023-05-27T10:27:47;8.03;;;4.77;;
13872;SDS011;7006;51.494;11.964;2023-05-27T10:30:16;7.00;;;4.63;;
13872;SDS011;7006;51.494;11.964;2023-05-27T10:32:47;8.90;;;4.23;;
13872;SDS011;7006;51.494;11.964;2023-05-27T10:35:15;9.40;;;4.33;;
13872;SDS011;7006;51.494;11.964;2023-05-27T10:37:44;7.25;;;4.30;;
13872;SDS011;7006;51.494;11.964;2023-05-27T10:40:23;8.67;;;4.30;;
13872;SDS011;7006;51.494;11.964;2023-05-27T10:42:57;8.07;;;4.27;;
13872;SDS011;7006;51.494;11.964;2023-05-27T10:45:31;8.60;;;4.53;;
13872;SDS011;7006;51.494;11.964;2023-05-27T10:48:01;6.73;;;4.13;;
13872;SDS011;7006;51.494;11.964;2023-05-27T10:50:30;6.77;;;4.17;;
13872;SDS011;7006;51.494;11.964;2023-05-27T10:52:59;12.60;;;5.90;;
13872;SDS011;7006;51.494;11.964;2023-05-27T10:55:28;9.00;;;4.67;;
13872;SDS011;7006;51.494;11.964;2023-05-27T10:57:56;9.30;;;4.60;;
13872;SDS011;7006;51.494;11.964;2023-05-27T11:00:24;8.77;;;4.30;;
13872;SDS011;7006;51.494;11.964;2023-05-27T11:02:54;14.70;;;5.30;;
13872;SDS011;7006;51.494;11.964;2023-05-27T11:05:27;10.93;;;4.47;;
13872;SDS011;7006;51.494;11.964;2023-05-27T11:07:58;10.37;;;4.50;;
13872;SDS011;7006;51.494;11.964;2023-05-27T11:10:28;8.10;;;4.00;;
13872;SDS011;7006;51.494;11.964;2023-05-27T11:12:56;6.47;;;3.83;;
13872;SDS011;7006;51.494;11.964;2023-05-27T11:15:24;9.07;;;4.87;;
13872;SDS011;7006;51.494;11.964;2023-05-27T11:17:53;7.10;;;4.10;;
13872;SDS011;7006;51.494;11.964;2023-05-27T11:20:21;7.43;;;3.77;;
13872;SDS011;7006;51.494;11.964;2023-05-27T11:22:53;9.37;;;4.43;;
13872;SDS011;7006;51.494;11.964;2023-05-27T11:25:22;9.70;;;4.47;;
13872;SDS011;7006;51.494;11.964;2023-05-27T11:27:50;7.93;;;4.27;;
13872;SDS011;7006;51.494;11.964;2023-05-27T11:30:22;9.03;;;3.87;;
13872;SDS011;7006;51.494;11.964;2023-05-27T11:32:52;13.27;;;4.43;;
13872;SDS011;7006;51.494;11.964;2023-05-27T11:35:20;8.13;;;3.30;;
13872;SDS011;7006;51.494;11.964;2023-05-27T11:37:51;7.77;;;3.70;;
13872;SDS011;7006;51.494;11.964;2023-05-27T11:40:21;9.07;;;3.97;;
13872;SDS011;7006;51.494;11.964;2023-05-27T11:42:50;6.13;;;3.17;;
13872;SDS011;7006;51.494;11.964;2023-05-27T11:45:18;7.57;;;3.40;;
13872;SDS011;7006;51.494;11.964;2023-05-27T11:47:46;9.63;;;3.97;;
13872;SDS011;7006;51.494;11.964;2023-05-27T11:50:17;8.73;;;3.80;;
13872;SDS011;7006;51.494;11.964;2023-05-27T11:52:51;6.37;;;3.50;;
13872;SDS011;7006;51.494;11.964;2023-05-27T11:55:22;18.77;;;4.60;;
13872;SDS011;7006;51.494;11.964;2023-05-27T11:57:50;6.93;;;4.03;;
13872;SDS011;7006;51.494;11.964;2023-05-27T12:00:19;8.57;;;3.93;;
13872;SDS011;7006;51.494;11.964;2023-05-27T12:02:49;8.10;;;3.90;;
13872;SDS011;7006;51.494;11.964;2023-05-27T12:05:17;7.00;;;4.30;;
13872;SDS011;7006;51.494;11.964;2023-05-27T12:07:45;8.50;;;4.13;;
13872;SDS011;7006;51.494;11.964;2023-05-27T12:10:14;8.73;;;3.80;;
13872;SDS011;7006;51.494;11.964;2023-05-27T12:12:45;6.43;;;3.20;;
13872;SDS011;7006;51.494;11.964;2023-05-27T12:15:15;6.90;;;3.63;;
13872;SDS011;7006;51.494;11.964;2023-05-27T12:17:43;9.63;;;4.00;;
13872;SDS011;7006;51.494;11.964;2023-05-27T12:20:11;7.00;;;3.43;;
13872;SDS011;7006;51.494;11.964;2023-05-27T12:22:39;9.40;;;3.53;;
13872;SDS011;7006;51.494;11.964;2023-05-27T12:25:08;8.70;;;3.57;;
13872;SDS011;7006;51.494;11.964;2023-05-27T12:27:36;5.10;;;3.10;;
13872;SDS011;7006;51.494;11.964;2023-05-27T12:30:08;7.13;;;3.33;;
13872;SDS011;7006;51.494;11.964;2023-05-27T12:32:36;7.93;;;3.17;;
13872;SDS011;7006;51.494;11.964;2023-05-27T12:35:05;5.67;;;3.37;;
13872;SDS011;7006;51.494;11.964;2023-05-27T12:37:33;6.10;;;3.50;;
13872;SDS011;7006;51.494;11.964;2023-05-27T12:40:01;5.20;;;3.53;;
13872;SDS011;7006;51.494;11.964;2023-05-27T12:42:30;9.90;;;4.33;;
13872;SDS011;7006;51.494;11.964;2023-05-27T12:44:59;8.33;;;3.80;;
13872;SDS011;7006;51.494;11.964;2023-05-27T12:47:30;7.03;;;3.70;;
13872;SDS011;7006;51.494;11.964;2023-05-27T12:49:58;6.67;;;4.07;;
13872;SDS011;7006;51.494;11.964;2023-05-27T12:52:26;6.97;;;4.00;;
13872;SDS011;7006;51.494;11.964;2023-05-27T12:54:54;5.03;;;3.30;;
13872;SDS011;7006;51.494;11.964;2023-05-27T12:57:22;6.20;;;3.50;;
13872;SDS011;7006;51.494;11.964;2023-05-27T12:59:50;7.43;;;3.60;;
13872;SDS011;7006;51.494;11.964;2023-05-27T13:02:18;6.53;;;3.47;;
13872;SDS011;7006;51.494;11.964;2023-05-27T13:04:49;5.43;;;3.40;;
13872;SDS011;7006;51.494;11.964;2023-05-27T13:07:17;7.07;;;3.47;;
13872;SDS011;7006;51.494;11.964;2023-05-27T13:09:45;10.00;;;3.47;;
13872;SDS011;7006;51.494;11.964;2023-05-27T13:12:13;7.10;;;4.20;;
13872;SDS011;7006;51.494;11.964;2023-05-27T13:14:41;7.87;;;3.87;;
13872;SDS011;7006;51.494;11.964;2023-05-27T13:17:10;6.13;;;2.60;;
13872;SDS011;7006;51.494;11.964;2023-05-27T13:19:38;7.30;;;3.23;;
13872;SDS011;7006;51.494;11.964;2023-05-27T13:22:09;7.17;;;3.80;;
13872;SDS011;7006;51.494;11.964;2023-05-27T13:24:38;4.20;;;2.83;;
13872;SDS011;7006;51.494;11.964;2023-05-27T13:27:06;6.50;;;3.70;;
13872;SDS011;7006;51.494;11.964;2023-05-27T13:29:35;5.33;;;3.07;;
13872;SDS011;7006;51.494;11.964;2023-05-27T13:32:03;5.70;;;2.90;;
13872;SDS011;7006;51.494;11.964;2023-05-27T13:34:31;6.70;;;3.13;;
13872;SDS011;7006;51.494;11.964;2023-05-27T13:36:59;5.60;;;3.03;;
13872;SDS011;7006;51.494;11.964;2023-05-27T13:39:30;8.43;;;4.07;;
13872;SDS011;7006;51.494;11.964;2023-05-27T13:41:58;6.13;;;3.67;;
13872;SDS011;7006;51.494;11.964;2023-05-27T13:44:27;8.00;;;3.70;;
13872;SDS011;7006;51.494;11.964;2023-05-27T13:46:55;7.33;;;3.83;;
13872;SDS011;7006;51.494;11.964;2023-05-27T13:49:23;6.40;;;3.00;;
13872;SDS011;7006;51.494;11.964;2023-05-27T13:51:51;4.60;;;3.00;;
13872;SDS011;7006;51.494;11.964;2023-05-27T13:54:19;4.03;;;2.70;;
13872;SDS011;7006;51.494;11.964;2023-05-27T13:56:49;5.20;;;3.40;;
13872;SDS011;7006;51.494;11.964;2023-05-27T13:59:18;6.63;;;3.30;;
13872;SDS011;7006;51.494;11.964;2023-05-27T14:01:46;6.07;;;3.10;;
13872;SDS011;7006;51.494;11.964;2023-05-27T14:04:15;6.63;;;2.87;;
13872;SDS011;7006;51.494;11.964;2023-05-27T14:06:43;5.70;;;3.30;;
13872;SDS011;7006;51.494;11.964;2023-05-27T14:09:11;6.10;;;3.43;;
13872;SDS011;7006;51.494;11.964;2023-05-27T14:11:39;8.40;;;3.87;;
13872;SDS011;7006;51.494;11.964;2023-05-27T14:14:10;5.33;;;2.70;;
13872;SDS011;7006;51.494;11.964;2023-05-27T14:16:38;4.80;;;2.97;;
13872;SDS011;7006;51.494;11.964;2023-05-27T14:19:06;5.27;;;2.90;;
13872;SDS011;7006;51.494;11.964;2023-05-27T14:21:34;5.93;;;3.10;;
13872;SDS011;7006;51.494;11.964;2023-05-27T14:24:02;7.50;;;2.90;;
13872;SDS011;7006;51.494;11.964;2023-05-27T14:26:30;4.97;;;3.20;;
13872;SDS011;7006;51.494;11.964;2023-05-27T14:28:58;6.63;;;3.00;;
13872;SDS011;7006;51.494;11.964;2023-05-27T14:31:29;5.00;;;3.70;;
13872;SDS011;7006;51.494;11.964;2023-05-27T14:33:57;6.13;;;3.40;;
13872;SDS011;7006;51.494;11.964;2023-05-27T14:36:25;5.00;;;3.30;;
13872;SDS011;7006;51.494;11.964;2023-05-27T14:38:53;6.17;;;3.13;;
13872;SDS011;7006;51.494;11.964;2023-05-27T14:41:21;4.53;;;2.80;;
13872;SDS011;7006;51.494;11.964;2023-05-27T14:43:51;6.20;;;3.00;;
13872;SDS011;7006;51.494;11.964;2023-05-27T14:46:19;5.10;;;3.23;;
13872;SDS011;7006;51.494;11.964;2023-05-27T14:48:50;3.87;;;2.63;;